Time;durP1;ratioP1;P1;durP2;ratioP2;P2;SDS_P1;SDS_P2;PMS_P1;PMS_P2;Temp;Humidity;BMP_temperature;BMP_pressure;BME280_temperature;BME280_humidity;BME280_pressure;Samples;Min_cycle;Max_cycle;Signal;HPM_P1;HPM_P2
2022/01/14 00:02:12;;;;;;;0.20;0.20;;;;;;;5.15;100.00;102512.00;5032878;28;20046;-82
2022/01/14 00:04:41;;;;;;;0.20;0.20;;;;;;;4.99;100.00;102496.94;5026103;28;20045;-82
2022/01/14 00:07:14;;;;;;;0.20;0.20;;;;;;;5.14;100.00;102514.88;5019274;28;20563;-82
2022/01/14 00:09:49;;;;;;;0.25;0.25;;;;;;;5.09;100.00;102505.50;5020874;28;20049;-82
2022/01/14 00:12:27;;;;;;;0.20;0.20;;;;;;;5.03;100.00;102500.09;5022634;28;20052;-82
2022/01/14 00:15:13;;;;;;;;;;;;;;;5.11;100.00;102503.47;5038619;28;20414;-81
2022/01/14 00:17:46;;;;;;;0.20;0.20;;;;;;;5.06;100.00;102502.38;5025474;28;19940;-82
2022/01/14 00:20:14;;;;;;;0.20;0.20;;;;;;;4.94;100.00;102496.69;5037565;28;20050;-83
2022/01/14 00:22:47;;;;;;;0.25;0.25;;;;;;;5.05;100.00;102498.00;5022721;28;20045;-83
2022/01/14 00:33:42;;;;;;;0.20;0.20;;;;;;;4.94;100.00;102481.34;5022889;28;20057;-82
2022/01/14 00:36:15;;;;;;;0.13;0.13;;;;;;;4.79;100.00;102463.59;5023369;28;20040;-81
2022/01/14 00:38:48;;;;;;;0.25;0.25;;;;;;;4.89;100.00;102478.41;5020128;28;20049;-81
2022/01/14 00:41:23;;;;;;;0.10;0.10;;;;;;;4.97;100.00;102474.72;5013673;28;20434;-82
2022/01/14 00:44:01;;;;;;;0.20;0.20;;;;;;;4.96;100.00;102473.06;5022898;28;20052;-83
2022/01/14 00:46:34;;;;;;;;;;;;;;;5.00;100.00;102473.47;5016459;28;20052;-82
2022/01/14 00:49:02;;;;;;;0.20;0.20;;;;;;;4.99;100.00;102467.25;5016807;28;20426;-83
2022/01/14 00:51:30;;;;;;;0.20;0.20;;;;;;;4.97;100.00;102463.91;5023692;28;20042;-82
2022/01/14 00:54:05;;;;;;;0.20;0.20;;;;;;;4.80;100.00;102449.09;5018826;28;20040;-82
2022/01/14 00:57:00;;;;;;;0.20;0.20;;;;;;;4.97;100.00;102466.63;5024684;28;20053;-82
2022/01/14 00:59:28;;;;;;;0.30;0.30;;;;;;;4.69;100.00;102418.94;5016545;28;20045;-80
2022/01/14 01:02:01;;;;;;;0.20;0.20;;;;;;;4.92;100.00;102469.09;5034870;28;20049;-83
2022/01/14 01:04:38;;;;;;;0.20;0.20;;;;;;;4.89;100.00;102470.31;5022496;28;20512;-81
2022/01/14 01:07:12;;;;;;;0.30;0.30;;;;;;;4.90;100.00;102472.00;5021602;28;20054;-81
2022/01/14 01:09:49;;;;;;;0.20;0.20;;;;;;;4.89;100.00;102454.13;5014795;28;20061;-82
2022/01/14 01:12:33;;;;;;;0.28;0.28;;;;;;;4.96;100.00;102462.28;5021944;28;20045;-83
2022/01/14 01:15:12;;;;;;;0.20;0.20;;;;;;;4.92;100.00;102452.91;5016567;28;20054;-84
2022/01/14 01:17:45;;;;;;;0.20;0.20;;;;;;;4.92;100.00;102456.44;5025012;28;20041;-82
2022/01/14 01:20:17;;;;;;;0.20;0.20;;;;;;;4.89;100.00;102447.91;5022964;28;20050;-83
2022/01/14 01:22:54;;;;;;;0.20;0.20;;;;;;;4.85;100.00;102452.84;5019995;28;20037;-82
2022/01/14 01:25:41;;;;;;;0.30;0.30;;;;;;;4.81;100.00;102446.19;5039210;28;20050;-83
2022/01/14 01:28:16;;;;;;;0.20;0.20;;;;;;;4.91;100.00;102462.03;5022362;28;20045;-83
2022/01/14 01:31:03;;;;;;;0.20;0.20;;;;;;;4.91;100.00;102462.84;5023320;28;20049;-83
2022/01/14 01:33:36;;;;;;;0.20;0.20;;;;;;;4.92;100.00;102469.09;5024761;28;20393;-83
2022/01/14 01:36:09;;;;;;;0.20;0.20;;;;;;;4.91;100.00;102470.94;5039660;28;20056;-82
2022/01/14 01:38:42;;;;;;;0.20;0.20;;;;;;;4.84;100.00;102467.38;5027056;28;20042;-83
2022/01/14 01:41:17;;;;;;;0.10;0.10;;;;;;;4.82;100.00;102466.75;5025149;28;20037;-82
2022/01/14 01:43:51;;;;;;;0.15;0.15;;;;;;;4.83;100.00;102471.09;5015817;28;20057;-82
2022/01/14 01:46:20;;;;;;;0.20;0.20;;;;;;;4.82;100.00;102464.06;5021839;28;20056;-83
2022/01/14 01:48:54;;;;;;;0.20;0.20;;;;;;;4.80;100.00;102463.41;5014231;28;20046;-83
2022/01/14 01:51:27;;;;;;;0.20;0.20;;;;;;;4.91;100.00;102462.03;5026353;28;20424;-83
2022/01/14 01:53:55;;;;;;;0.10;0.10;;;;;;;4.80;100.00;102458.00;5024824;28;20064;-82
2022/01/14 01:56:28;;;;;;;0.20;0.20;;;;;;;4.77;100.00;102453.84;5025560;28;20383;-82
2022/01/14 01:59:03;;;;;;;0.20;0.20;;;;;;;4.80;100.00;102438.31;5021096;28;20045;-82
2022/01/14 02:01:32;;;;;;;0.20;0.20;;;;;;;4.77;100.00;102440.34;5023477;28;20052;-84
2022/01/14 02:04:05;;;;;;;0.20;0.20;;;;;;;4.81;100.00;102437.28;5022267;28;20049;-83
2022/01/14 02:06:40;;;;;;;0.30;0.30;;;;;;;4.85;100.00;102433.16;5015001;28;20045;-83
2022/01/14 02:09:09;;;;;;;0.20;0.20;;;;;;;4.76;100.00;102433.31;5024255;28;20064;-83
2022/01/14 02:11:42;;;;;;;0.20;0.20;;;;;;;4.82;100.00;102426.28;5036544;28;20084;-83
2022/01/14 02:14:39;;;;;;;0.20;0.20;;;;;;;4.79;100.00;102429.34;5021951;28;20053;-82
2022/01/14 02:17:30;;;;;;;0.20;0.20;;;;;;;4.75;100.00;102425.38;5021301;28;20065;-83
2022/01/14 02:22:55;;;;;;;0.20;0.20;;;;;;;4.74;100.00;102431.84;5025652;28;20053;-81
2022/01/14 02:25:29;;;;;;;0.20;0.20;;;;;;;4.80;100.00;102417.53;5022222;28;20042;-82
2022/01/14 02:28:06;;;;;;;0.20;0.20;;;;;;;4.86;100.00;102424.84;5026983;28;20046;-82
2022/01/14 02:30:41;;;;;;;0.20;0.20;;;;;;;4.83;100.00;102432.50;5030625;28;20046;-83
2022/01/14 02:33:16;;;;;;;0.22;0.22;;;;;;;4.83;100.00;102421.72;5020074;28;20049;-83
2022/01/14 02:35:48;;;;;;;0.20;0.20;;;;;;;4.70;100.00;102419.78;5038997;28;20064;-83
2022/01/14 02:38:21;;;;;;;0.20;0.20;;;;;;;4.77;100.00;102416.06;5015471;28;20057;-82
2022/01/14 02:40:55;;;;;;;0.20;0.20;;;;;;;4.77;100.00;102405.28;5019837;28;20087;-83
2022/01/14 02:43:25;;;;;;;0.20;0.20;;;;;;;4.77;100.00;102399.88;5026706;28;20054;-83
2022/01/14 02:45:58;;;;;;;0.20;0.20;;;;;;;4.84;100.00;102399.09;5027207;28;20469;-83
2022/01/14 02:48:29;;;;;;;0.20;0.20;;;;;;;4.78;100.00;102392.66;5020752;28;20057;-82
2022/01/14 02:51:11;;;;;;;0.20;0.20;;;;;;;4.74;100.00;102386.81;5021853;28;20037;-83
2022/01/14 02:53:55;;;;;;;0.20;0.20;;;;;;;4.75;100.00;102377.69;5023093;28;20918;-84
2022/01/14 02:56:31;;;;;;;0.20;0.20;;;;;;;4.87;100.00;102382.50;5042127;28;20050;-83
2022/01/14 02:59:06;;;;;;;0.20;0.20;;;;;;;4.92;100.00;102378.19;5025630;28;20068;-82
2022/01/14 03:01:35;;;;;;;0.10;0.10;;;;;;;4.89;100.00;102386.69;5028067;28;20041;-82
2022/01/14 03:04:09;;;;;;;0.20;0.20;;;;;;;4.79;100.00;102378.09;5039871;28;20065;-82
2022/01/14 03:06:44;;;;;;;0.30;0.30;;;;;;;4.84;100.00;102370.25;5018730;28;20053;-83
2022/01/14 03:09:17;;;;;;;0.20;0.20;;;;;;;4.81;100.00;102367.97;5026671;28;20045;-83
2022/01/14 03:11:54;;;;;;;0.20;0.20;;;;;;;4.99;100.00;102356.63;5028915;28;20056;-82
2022/01/14 03:14:29;;;;;;;0.17;0.17;;;;;;;4.88;100.00;102360.72;5026244;28;20069;-83
2022/01/14 03:17:02;;;;;;;0.20;0.20;;;;;;;4.84;100.00;102359.47;5025878;28;20053;-83
2022/01/14 03:19:35;;;;;;;0.13;0.13;;;;;;;4.80;100.00;102357.38;5040013;28;20049;-82
2022/01/14 03:22:19;;;;;;;0.20;0.20;;;;;;;4.86;100.00;102354.72;5018320;28;20057;-82
2022/01/14 03:27:38;;;;;;;0.20;0.20;;;;;;;4.91;100.00;102356.81;5024518;28;20067;-83
2022/01/14 03:30:13;;;;;;;0.22;0.22;;;;;;;4.81;100.00;102342.88;5026191;28;20063;-83
2022/01/14 03:32:46;;;;;;;0.20;0.20;;;;;;;4.90;100.00;102345.19;5021351;28;20071;-83
2022/01/14 03:35:19;;;;;;;0.20;0.20;;;;;;;4.88;100.00;102341.84;5025105;28;20049;-83
2022/01/14 03:37:49;;;;;;;0.20;0.20;;;;;;;4.87;100.00;102337.47;5018115;28;20050;-82
2022/01/14 03:40:22;;;;;;;0.20;0.20;;;;;;;4.95;100.00;102320.28;5025043;28;20080;-83
2022/01/14 03:42:55;;;;;;;0.25;0.25;;;;;;;4.97;100.00;102334.41;5024293;28;20764;-83
2022/01/14 03:45:28;;;;;;;0.20;0.20;;;;;;;4.99;100.00;102328.84;5023174;28;20050;-83
2022/01/14 03:48:02;;;;;;;0.15;0.15;;;;;;;4.93;100.00;102325.91;5027504;28;20037;-83
2022/01/14 03:50:35;;;;;;;0.20;0.20;;;;;;;4.91;100.00;102319.84;5027996;28;20049;-83
2022/01/14 03:53:11;;;;;;;0.20;0.20;;;;;;;4.94;100.00;102306.00;5021156;28;20414;-82
2022/01/14 03:55:45;;;;;;;0.20;0.20;;;;;;;4.97;100.00;102307.41;5025131;28;20119;-81
2022/01/14 03:58:18;;;;;;;0.20;0.20;;;;;;;5.00;100.00;102307.03;5025606;28;20139;-81
2022/01/14 04:00:51;;;;;;;0.20;0.20;;;;;;;4.96;100.00;102288.75;5028714;28;20056;-82
2022/01/14 04:03:24;;;;;;;0.20;0.20;;;;;;;5.00;100.00;102296.25;5021791;28;20045;-82
2022/01/14 04:05:57;;;;;;;0.20;0.20;;;;;;;5.00;100.00;102293.56;5015389;28;20549;-82
2022/01/14 04:08:32;;;;;;;0.20;0.20;;;;;;;4.95;100.00;102293.31;5017277;28;20060;-82
2022/01/14 04:11:06;;;;;;;0.20;0.20;;;;;;;5.02;100.00;102294.16;5023683;28;20041;-82
2022/01/14 04:13:46;;;;;;;0.20;0.20;;;;;;;5.03;100.00;102287.75;5019339;28;20064;-81
2022/01/14 04:16:21;;;;;;;0.20;0.20;;;;;;;5.00;100.00;102288.16;5021665;28;20395;-82
2022/01/14 04:18:51;;;;;;;0.20;0.20;;;;;;;5.04;100.00;102292.09;5021852;28;20056;-83
2022/01/14 04:21:19;;;;;;;0.20;0.20;;;;;;;5.04;100.00;102302.91;5024304;28;20041;-83
2022/01/14 04:23:54;;;;;;;0.20;0.20;;;;;;;5.02;100.00;102293.34;5024488;28;20071;-82
2022/01/14 04:26:27;;;;;;;0.20;0.20;;;;;;;5.06;100.00;102302.69;5024564;28;20045;-82
2022/01/14 04:29:00;;;;;;;0.20;0.20;;;;;;;5.00;100.00;102309.75;5024157;28;20056;-83
2022/01/14 04:31:33;;;;;;;0.20;0.20;;;;;;;5.02;100.00;102290.66;5026874;28;20058;-84
2022/01/14 04:34:07;;;;;;;0.20;0.20;;;;;;;4.99;100.00;102291.88;5028433;28;20485;-82
2022/01/14 04:36:40;;;;;;;0.17;0.17;;;;;;;5.04;100.00;102293.97;5023400;28;20045;-82
2022/01/14 04:39:14;;;;;;;0.20;0.20;;;;;;;4.98;100.00;102284.81;5026096;28;20041;-83
2022/01/14 04:41:47;;;;;;;0.20;0.20;;;;;;;5.00;100.00;102279.22;5020312;28;20050;-83
2022/01/14 04:44:21;;;;;;;0.17;0.17;;;;;;;5.03;100.00;102290.44;5030108;28;20056;-82
2022/01/14 04:47:02;;;;;;;0.20;0.20;;;;;;;5.05;100.00;102291.06;5020496;28;20413;-83
2022/01/14 04:49:30;;;;;;;0.25;0.25;;;;;;;5.07;100.00;102283.59;5023553;28;21310;-82
2022/01/14 04:52:04;;;;;;;0.20;0.20;;;;;;;5.06;100.00;102284.63;5027106;28;20041;-82
2022/01/14 04:54:38;;;;;;;0.20;0.20;;;;;;;5.09;100.00;102288.78;5019090;28;20049;-82
2022/01/14 04:57:16;;;;;;;0.20;0.20;;;;;;;5.09;100.00;102286.91;5024927;28;20056;-83
2022/01/14 04:59:46;;;;;;;0.20;0.20;;;;;;;5.03;100.00;102285.03;5020951;28;20425;-83
2022/01/14 05:02:19;;;;;;;0.20;0.20;;;;;;;5.05;100.00;102301.84;5026224;28;20076;-82
2022/01/14 05:04:47;;;;;;;0.20;0.20;;;;;;;5.04;100.00;102302.06;5025073;28;20054;-82
2022/01/14 05:07:25;;;;;;;0.20;0.20;;;;;;;5.11;100.00;102306.44;5031234;28;20049;-83
2022/01/14 05:10:16;;;;;;;0.20;0.20;;;;;;;5.11;100.00;102311.03;5017462;28;20057;-83
2022/01/14 05:12:50;;;;;;;0.20;0.20;;;;;;;5.04;100.00;102294.81;5016670;28;20058;-82
2022/01/14 05:15:23;;;;;;;0.20;0.20;;;;;;;5.10;100.00;102298.56;5018378;28;20049;-82
2022/01/14 05:17:57;;;;;;;0.10;0.10;;;;;;;5.08;100.00;102300.63;5030648;28;20048;-82
2022/01/14 05:20:30;;;;;;;0.28;0.28;;;;;;;5.10;100.00;102293.16;5029195;28;20052;-82
2022/01/14 05:23:03;;;;;;;0.20;0.20;;;;;;;5.11;100.00;102311.84;5025495;28;20518;-83
2022/01/14 05:25:33;;;;;;;0.20;0.20;;;;;;;5.11;100.00;102306.44;5017640;28;20072;-83
2022/01/14 05:28:06;;;;;;;0.20;0.20;;;;;;;5.02;100.00;102301.44;5019338;28;20053;-82
2022/01/14 05:30:39;;;;;;;0.20;0.20;;;;;;;4.99;100.00;102304.56;5022235;28;20076;-84
2022/01/14 05:33:08;;;;;;;0.20;0.20;;;;;;;5.01;100.00;102289.78;5017266;28;20058;-83
2022/01/14 05:35:41;;;;;;;0.20;0.20;;;;;;;5.01;100.00;102288.97;5019821;28;20042;-82
2022/01/14 05:38:14;;;;;;;0.20;0.20;;;;;;;5.01;100.00;102286.28;5016468;28;20053;-82
2022/01/14 05:40:44;;;;;;;0.20;0.20;;;;;;;5.01;100.00;102288.97;5022305;28;20061;-83
2022/01/14 05:43:17;;;;;;;0.20;0.20;;;;;;;4.98;100.00;102294.78;5036430;28;20053;-82
2022/01/14 05:45:50;;;;;;;0.20;0.20;;;;;;;5.02;100.00;102290.66;5018216;28;20065;-82
2022/01/14 05:48:23;;;;;;;0.20;0.20;;;;;;;4.97;100.00;102276.91;5024553;28;20058;-82
2022/01/14 05:50:57;;;;;;;0.20;0.20;;;;;;;4.98;100.00;102287.50;5018991;28;20053;-83
2022/01/14 05:53:30;;;;;;;0.20;0.20;;;;;;;4.93;100.00;102280.03;5021821;28;20046;-82
2022/01/14 05:56:05;;;;;;;0.20;0.20;;;;;;;5.01;100.00;102295.19;5022561;28;20517;-82
2022/01/14 05:58:33;;;;;;;0.10;0.10;;;;;;;4.97;100.00;102302.03;5021562;28;20060;-82
2022/01/14 06:01:01;;;;;;;0.20;0.20;;;;;;;4.98;100.00;102308.28;5023141;28;20056;-82
2022/01/14 06:03:34;;;;;;;0.20;0.20;;;;;;;4.94;100.00;102300.59;5020836;28;20049;-83
2022/01/14 06:06:08;;;;;;;0.20;0.20;;;;;;;4.92;100.00;102302.66;5024272;28;20484;-82
2022/01/14 06:08:36;;;;;;;0.20;0.20;;;;;;;5.01;100.00;102310.56;5025336;28;20045;-83
2022/01/14 06:11:05;;;;;;;0.20;0.20;;;;;;;4.90;100.00;102306.56;5026708;28;20060;-82
2022/01/14 06:13:39;;;;;;;0.28;0.28;;;;;;;4.90;100.00;102299.34;5026121;28;20568;-82
2022/01/14 06:16:12;;;;;;;0.20;0.20;;;;;;;4.94;100.00;102324.03;5029599;28;20041;-82
2022/01/14 06:18:46;;;;;;;0.20;0.20;;;;;;;4.92;100.00;102320.72;5023193;28;20056;-83
2022/01/14 06:21:14;;;;;;;0.20;0.20;;;;;;;4.99;100.00;102318.88;5024349;28;20049;-83
2022/01/14 06:23:48;;;;;;;0.30;0.30;;;;;;;4.85;100.00;102315.28;5018477;28;20676;-82
2022/01/14 06:26:23;;;;;;;0.20;0.20;;;;;;;4.83;100.00;102316.50;5020094;28;20053;-82
2022/01/14 06:28:56;;;;;;;0.20;0.20;;;;;;;4.84;100.00;102310.91;5028639;28;20045;-83
2022/01/14 06:31:29;;;;;;;0.20;0.20;;;;;;;4.82;100.00;102306.75;5023416;28;20050;-82
2022/01/14 06:34:02;;;;;;;0.20;0.20;;;;;;;4.78;100.00;102309.03;5021277;28;20423;-82
2022/01/14 06:36:35;;;;;;;0.20;0.20;;;;;;;4.80;100.00;102309.66;5027154;28;20057;-82
2022/01/14 06:39:04;;;;;;;0.20;0.20;;;;;;;4.81;100.00;102305.09;5014726;28;20793;-83
2022/01/14 06:41:33;;;;;;;0.20;0.20;;;;;;;4.77;100.00;102315.44;5029760;28;20042;-83
2022/01/14 06:44:07;;;;;;;0.20;0.20;;;;;;;4.76;100.00;102321.88;5025209;28;20057;-83
2022/01/14 06:46:40;;;;;;;0.20;0.20;;;;;;;4.77;100.00;102316.28;5026794;28;20054;-83
2022/01/14 06:49:14;;;;;;;0.30;0.30;;;;;;;4.79;100.00;102321.47;5046039;28;20053;-83
2022/01/14 06:51:42;;;;;;;0.20;0.20;;;;;;;4.86;100.00;102316.09;5021188;28;20057;-81
2022/01/14 06:54:15;;;;;;;0.20;0.20;;;;;;;4.83;100.00;102309.25;5029765;28;20399;-82
2022/01/14 06:56:50;;;;;;;0.10;0.10;;;;;;;4.79;100.00;102304.47;5026165;28;20045;-83
2022/01/14 06:59:23;;;;;;;0.30;0.30;;;;;;;4.80;100.00;102314.22;5028676;28;20065;-83
2022/01/14 07:01:56;;;;;;;0.20;0.20;;;;;;;4.77;100.00;102313.56;5028000;28;20448;-82
2022/01/14 07:04:24;;;;;;;0.20;0.20;;;;;;;4.79;100.00;102305.28;5025196;28;20494;-82
2022/01/14 07:06:57;;;;;;;0.20;0.20;;;;;;;4.77;100.00;102316.28;5017040;28;20057;-82
2022/01/14 07:09:31;;;;;;;0.13;0.13;;;;;;;4.77;100.00;102310.88;5021944;28;20072;-82
2022/01/14 07:12:07;;;;;;;0.20;0.20;;;;;;;4.85;100.00;102317.97;5005934;28;20521;-81
2022/01/14 07:14:40;;;;;;;0.20;0.20;;;;;;;4.69;100.00;102316.44;5005310;28;20062;-82
2022/01/14 07:17:14;;;;;;;0.20;0.20;;;;;;;4.72;100.00;102326.00;5010714;28;20060;-82
2022/01/14 07:19:49;;;;;;;0.20;0.20;;;;;;;4.79;100.00;102323.34;5009320;28;20049;-83
2022/01/14 07:22:23;;;;;;;0.20;0.20;;;;;;;4.75;100.00;102328.28;5005931;28;20060;-83
2022/01/14 07:24:51;;;;;;;0.20;0.20;;;;;;;4.79;100.00;102331.44;5005152;28;20053;-81
2022/01/14 07:27:22;;;;;;;0.20;0.20;;;;;;;4.82;100.00;102331.88;5007899;28;20482;-83
2022/01/14 07:29:56;;;;;;;0.20;0.20;;;;;;;4.80;100.00;102311.53;5002316;28;20583;-83
2022/01/14 07:32:24;;;;;;;0.13;0.13;;;;;;;4.77;100.00;102320.84;5016426;28;20049;-82
2022/01/14 07:34:57;;;;;;;0.20;0.20;;;;;;;4.82;100.00;102323.78;5008615;28;20069;-82
2022/01/14 07:37:31;;;;;;;0.13;0.13;;;;;;;4.81;100.00;102329.38;5004837;28;20045;-83
2022/01/14 07:39:59;;;;;;;0.20;0.20;;;;;;;4.74;100.00;102319.38;5010398;28;20075;-82
2022/01/14 07:42:34;;;;;;;0.20;0.20;;;;;;;4.79;100.00;102328.72;5022581;28;20053;-82
2022/01/14 07:45:03;;;;;;;0.20;0.20;;;;;;;4.75;100.00;102322.91;5019400;28;20061;-82
2022/01/14 07:47:37;;;;;;;0.20;0.20;;;;;;;4.74;100.00;102327.47;5021540;28;20054;-82
2022/01/14 07:50:06;;;;;;;0.20;0.20;;;;;;;4.70;100.00;102320.00;5012344;28;20057;-82
2022/01/14 07:52:34;;;;;;;0.10;0.10;;;;;;;4.73;100.00;102320.41;5006895;28;20087;-83
2022/01/14 07:55:08;;;;;;;0.20;0.20;;;;;;;4.71;100.00;102309.00;5007448;28;20053;-81
2022/01/14 07:57:43;;;;;;;0.20;0.20;;;;;;;4.83;100.00;102319.22;5004613;28;20046;-82
2022/01/14 08:00:12;;;;;;;0.20;0.20;;;;;;;4.81;100.00;102324.00;5006888;28;20628;-82
2022/01/14 08:02:46;;;;;;;0.20;0.20;;;;;;;4.72;100.00;102317.91;5016489;28;20057;-82
2022/01/14 08:05:15;;;;;;;0.20;0.20;;;;;;;4.71;100.00;102311.69;5003094;28;20076;-83
2022/01/14 08:07:51;;;;;;;0.20;0.20;;;;;;;4.79;100.00;102324.16;4998093;28;20054;-81
2022/01/14 08:10:25;;;;;;;0.20;0.20;;;;;;;4.74;100.00;102323.94;5003795;28;20075;-83
2022/01/14 08:12:54;;;;;;;0.20;0.20;;;;;;;4.75;100.00;102344.47;5004711;28;20116;-82
2022/01/14 08:15:27;;;;;;;0.20;0.20;;;;;;;4.78;100.00;102336.00;5004314;28;20058;-81
2022/01/14 08:17:56;;;;;;;0.30;0.30;;;;;;;4.78;100.00;102352.19;5002170;28;20059;-82
2022/01/14 08:20:30;;;;;;;0.20;0.20;;;;;;;4.81;100.00;102337.47;5002810;28;20058;-82
2022/01/14 08:23:03;;;;;;;0.20;0.20;;;;;;;4.78;100.00;102349.50;5002235;28;20738;-82
2022/01/14 08:25:36;;;;;;;0.25;0.25;;;;;;;4.81;100.00;102329.38;5004381;28;20053;-83
2022/01/14 08:28:11;;;;;;;0.20;0.20;;;;;;;4.93;100.00;102352.88;5006625;28;20076;-83
2022/01/14 08:30:44;;;;;;;0.20;0.20;;;;;;;4.83;100.00;102365.06;5008129;28;20061;-84
2022/01/14 08:33:13;;;;;;;0.20;0.20;;;;;;;4.87;100.00;102364.44;5017010;28;20046;-83
2022/01/14 08:35:47;;;;;;;0.20;0.20;;;;;;;4.86;100.00;102372.75;5002502;28;21496;-82
2022/01/14 08:38:15;;;;;;;0.20;0.20;;;;;;;4.85;100.00;102366.53;4999391;28;20053;-82
2022/01/14 08:40:49;;;;;;;0.20;0.20;;;;;;;4.89;100.00;102378.59;5001668;28;20054;-82
2022/01/14 08:43:23;;;;;;;0.20;0.20;;;;;;;4.92;100.00;102364.69;4997768;28;20057;-81
2022/01/14 08:45:58;;;;;;;0.20;0.20;;;;;;;4.86;100.00;102367.34;4999247;28;20069;-83
2022/01/14 08:48:26;;;;;;;0.20;0.20;;;;;;;4.85;100.00;102365.72;5004448;28;20463;-83
2022/01/14 08:51:00;;;;;;;0.20;0.20;;;;;;;4.85;100.00;102355.75;5003122;28;20053;-82
2022/01/14 08:53:33;;;;;;;0.20;0.20;;;;;;;4.85;100.00;102339.56;5001013;28;20092;-82
2022/01/14 08:56:02;;;;;;;0.20;0.20;;;;;;;4.85;100.00;102334.16;5003077;28;20056;-80
2022/01/14 08:58:32;;;;;;;0.15;0.15;;;;;;;4.85;100.00;102338.75;5002697;28;20053;-82
2022/01/14 09:01:00;;;;;;;0.30;0.30;;;;;;;4.91;100.00;102338.75;5006661;28;20049;-81
2022/01/14 09:03:33;;;;;;;0.20;0.20;;;;;;;4.88;100.00;102338.34;4999220;28;20088;-82
2022/01/14 09:06:06;;;;;;;0.20;0.20;;;;;;;4.83;100.00;102330.81;4999065;28;20060;-82
2022/01/14 09:08:35;;;;;;;0.30;0.30;;;;;;;4.88;100.00;102324.84;5014051;28;20057;-82
2022/01/14 09:11:08;;;;;;;0.20;0.20;;;;;;;5.01;100.00;102346.47;5004800;28;20060;-81
2022/01/14 09:13:42;;;;;;;0.20;0.20;;;;;;;4.96;100.00;102343.56;4999434;28;20061;-81
2022/01/14 09:16:11;;;;;;;0.20;0.20;;;;;;;5.02;100.00;102348.13;4996156;28;20049;-82
2022/01/14 09:18:39;;;;;;;0.20;0.20;;;;;;;4.98;100.00;102344.16;4999994;28;20069;-81
2022/01/14 09:21:07;;;;;;;0.10;0.10;;;;;;;5.03;100.00;102341.72;4996731;28;20062;-82
2022/01/14 09:23:43;;;;;;;0.20;0.20;;;;;;;5.03;100.00;102346.28;4999888;28;20053;-81
2022/01/14 09:26:11;;;;;;;0.20;0.20;;;;;;;5.02;100.00;102339.22;5000218;28;20145;-82
2022/01/14 09:28:46;;;;;;;0.20;0.20;;;;;;;5.07;100.00;102351.06;5000784;28;20379;-82
2022/01/14 09:31:19;;;;;;;0.20;0.20;;;;;;;4.99;100.00;102353.13;5002117;28;20058;-81
2022/01/14 09:33:52;;;;;;;0.20;0.20;;;;;;;5.09;100.00;102335.50;5003675;28;20413;-81
2022/01/14 09:36:26;;;;;;;0.20;0.20;;;;;;;5.08;100.00;102333.84;5007291;28;20057;-81
2022/01/14 09:38:59;;;;;;;0.20;0.20;;;;;;;5.19;100.00;102331.59;5019405;28;20057;-81
2022/01/14 09:41:33;;;;;;;0.20;0.20;;;;;;;5.15;100.00;102330.31;5024302;28;20061;-82
2022/01/14 09:44:03;;;;;;;0.30;0.30;;;;;;;5.19;100.00;102340.53;5005624;28;20418;-82
2022/01/14 09:46:37;;;;;;;0.20;0.20;;;;;;;5.18;100.00;102336.16;5006205;28;20061;-81
2022/01/14 09:49:06;;;;;;;0.20;0.20;;;;;;;5.26;100.00;102332.44;5003135;28;20061;-83
2022/01/14 09:51:39;;;;;;;0.20;0.20;;;;;;;5.25;100.00;102344.28;5008653;28;20061;-83
2022/01/14 09:54:15;;;;;;;0.20;0.20;;;;;;;5.27;100.00;102344.91;5007263;28;20068;-81
2022/01/14 09:56:48;;;;;;;0.20;0.20;;;;;;;5.23;100.00;102331.00;5000700;28;20062;-81
2022/01/14 09:59:23;;;;;;;0.20;0.20;;;;;;;5.18;100.00;102333.47;5006261;28;20058;-81
2022/01/14 10:01:51;;;;;;;0.15;0.15;;;;;;;5.22;100.00;102333.88;5008637;28;20053;-81
2022/01/14 10:04:21;;;;;;;0.20;0.20;;;;;;;5.19;100.00;102342.38;5009937;28;20061;-80
2022/01/14 10:06:52;;;;;;;0.20;0.20;;;;;;;5.37;100.00;102341.81;5008586;28;20054;-81
2022/01/14 10:09:33;;;;;;;0.13;0.13;;;;;;;5.29;100.00;102353.63;5007786;28;20049;-82
2022/01/14 10:12:10;;;;;;;0.20;0.20;;;;;;;5.30;100.00;102346.38;5022515;28;20521;-82
2022/01/14 10:14:55;;;;;;;0.22;0.22;;;;;;;5.30;100.00;102370.66;5004277;28;20903;-82
2022/01/14 10:17:37;;;;;;;0.20;0.20;;;;;;;5.39;100.00;102358.66;5000006;28;20073;-82
2022/01/14 10:20:12;;;;;;;0.20;0.20;;;;;;;5.32;100.00;102366.72;5003120;28;20149;-82
2022/01/14 10:22:47;;;;;;;0.20;0.20;;;;;;;5.25;100.00;102372.09;5004184;28;20050;-81
2022/01/14 10:25:21;;;;;;;0.20;0.20;;;;;;;5.43;100.00;102373.41;5008681;28;20049;-81
2022/01/14 10:27:56;;;;;;;0.10;0.10;;;;;;;5.29;100.00;102364.44;5007332;28;20046;-82
2022/01/14 10:30:33;;;;;;;0.20;0.20;;;;;;;5.37;100.00;102374.19;5003953;28;20056;-81
2022/01/14 10:33:08;;;;;;;0.22;0.22;;;;;;;5.37;100.00;102375.06;5004061;28;20060;-82
2022/01/14 10:35:39;;;;;;;0.20;0.20;;;;;;;5.37;100.00;102361.56;5007161;28;20057;-82
2022/01/14 10:38:14;;;;;;;0.20;0.20;;;;;;;5.33;100.00;102368.41;5002545;28;20065;-81
2022/01/14 10:40:51;;;;;;;0.20;0.20;;;;;;;5.31;100.00;102370.44;5000336;28;20064;-81
2022/01/14 10:43:21;;;;;;;0.20;0.20;;;;;;;5.43;100.00;102370.72;5014468;28;20660;-81
2022/01/14 10:45:52;;;;;;;0.20;0.20;;;;;;;5.33;100.00;102387.28;5005330;28;20045;-81
2022/01/14 10:48:29;;;;;;;0.20;0.20;;;;;;;5.37;100.00;102380.47;5014332;28;20069;-80
2022/01/14 10:50:59;;;;;;;0.20;0.20;;;;;;;5.30;100.00;102378.75;5002198;28;20049;-80
2022/01/14 10:53:31;;;;;;;0.20;0.20;;;;;;;5.30;100.00;102376.88;5001879;28;20060;-81
2022/01/14 10:56:07;;;;;;;0.20;0.20;;;;;;;5.29;100.00;102383.34;5003970;28;20602;-81
2022/01/14 10:58:36;;;;;;;0.20;0.20;;;;;;;5.42;100.00;102393.34;4997786;28;20046;-80
2022/01/14 11:01:08;;;;;;;0.20;0.20;;;;;;;5.38;100.00;102375.88;5005905;28;20048;-80
2022/01/14 11:03:44;;;;;;;0.20;0.20;;;;;;;5.59;100.00;102378.44;5001625;28;20128;-81
2022/01/14 11:06:23;;;;;;;0.20;0.20;;;;;;;5.49;100.00;102379.84;5000046;28;20058;-81
2022/01/14 11:08:57;;;;;;;0.20;0.20;;;;;;;5.55;100.00;102369.06;4998695;28;20100;-81
2022/01/14 11:11:27;;;;;;;0.28;0.28;;;;;;;5.42;100.00;102356.34;5000947;28;20045;-81
2022/01/14 11:14:01;;;;;;;0.20;0.20;;;;;;;5.53;100.00;102354.94;5003250;28;20053;-80
2022/01/14 11:16:36;;;;;;;0.20;0.20;;;;;;;5.69;100.00;102348.31;5003351;28;20050;-81
2022/01/14 11:19:08;;;;;;;0.20;0.20;;;;;;;5.59;100.00;102350.56;4998643;28;20053;-81
2022/01/14 11:24:34;;;;;;;0.20;0.20;;;;;;;5.52;100.00;102353.25;5019045;28;20061;-81
2022/01/14 11:27:06;;;;;;;0.20;0.20;;;;;;;5.63;100.00;102359.94;5001420;28;20045;-80
2022/01/14 11:29:42;;;;;;;0.20;0.20;;;;;;;5.69;100.00;102348.31;4998003;28;20065;-81
2022/01/14 11:32:17;;;;;;;0.20;0.20;;;;;;;5.66;100.00;102356.00;5000183;28;20057;-81
2022/01/14 11:34:50;;;;;;;0.20;0.20;;;;;;;5.67;100.00;102344.97;5004350;28;20095;-82
2022/01/14 11:37:33;;;;;;;0.10;0.10;;;;;;;5.69;100.00;102336.66;5005781;28;20061;-80
2022/01/14 11:40:10;;;;;;;0.20;0.20;;;;;;;5.88;100.00;102338.56;5001120;28;20728;-81
2022/01/14 11:42:43;;;;;;;0.20;0.20;;;;;;;5.87;100.00;102347.72;5017171;28;20088;-80
2022/01/14 11:45:17;;;;;;;0.15;0.15;;;;;;;5.92;100.00;102338.97;5016516;28;20053;-81
2022/01/14 11:48:01;;;;;;;0.20;0.20;;;;;;;6.28;100.00;102335.88;4998081;28;21503;-82
2022/01/14 11:50:49;;;;;;;0.20;0.20;;;;;;;6.20;100.00;102321.72;4997169;28;20045;-82
2022/01/14 11:53:41;;;;;;;0.20;0.20;;;;;;;6.19;100.00;102337.13;5004318;28;20061;-82
2022/01/14 11:56:46;;;;;;;0.15;0.15;;;;;;;6.10;100.00;102336.53;4998177;28;20061;-81
2022/01/14 11:59:39;;;;;;;0.13;0.13;;;;;;;6.11;100.00;102334.63;4999785;28;20049;-81
2022/01/14 12:02:29;;;;;;;0.10;0.10;;;;;;;6.12;100.00;102331.72;4999151;28;20077;-81
2022/01/14 12:05:22;;;;;;;0.15;0.15;;;;;;;6.08;100.00;102330.47;5002795;28;20046;-81
2022/01/14 12:08:23;;;;;;;0.10;0.10;;;;;;;6.10;100.00;102332.97;4999224;28;20057;-81
2022/01/14 12:11:24;;;;;;;0.20;0.20;;;;;;;6.03;100.00;102322.16;5003304;28;20076;-81
2022/01/14 12:14:12;;;;;;;0.17;0.17;;;;;;;6.13;100.00;102311.78;5001859;28;20053;-81
2022/01/14 12:16:50;;;;;;;0.20;0.20;;;;;;;6.22;100.00;102319.66;5003379;28;20073;-81